Terminal Aerodrome Forecast
Issued by NWS

Home | Current Version | Previous Version | Text Only | Print | Product List | Glossary On
Versions: 1 2 3 4 5 6 7 8 9 10 11 12 13 14 15 16 17 18 19 20 21 22 23 24 25 26 27 28
000
FTUS44 KOUN 201740
TAFPNC
TAF
KPNC 201740Z 2018/2118 17007KT P6SM BKN025
      TEMPO 2020/2024 SCT025
     FM210000 15006KT P6SM BKN015
     FM211000 14010KT 3SM -DZ BR OVC007=

USA.gov is the U.S. government's official web portal to all federal, state and local government web resources and services.